sensor_id;sensor_type;location;lat;lon;timestamp;P1;durP1;ratioP1;P2;durP2;ratioP2
56307;SDS011;42217;50.422;7.210;2023-08-06T00:00:21;3.72;;;2.22;;
56307;SDS011;42217;50.422;7.210;2023-08-06T00:02:47;2.53;;;1.90;;
56307;SDS011;42217;50.422;7.210;2023-08-06T00:05:13;7.15;;;1.92;;
56307;SDS011;42217;50.422;7.210;2023-08-06T00:07:43;2.03;;;1.73;;
56307;SDS011;42217;50.422;7.210;2023-08-06T00:10:09;5.25;;;2.17;;
56307;SDS011;42217;50.422;7.210;2023-08-06T00:12:36;2.50;;;1.70;;
56307;SDS011;42217;50.422;7.210;2023-08-06T00:15:01;6.50;;;2.60;;
56307;SDS011;42217;50.422;7.210;2023-08-06T00:17:27;4.80;;;2.03;;
56307;SDS011;42217;50.422;7.210;2023-08-06T00:19:53;2.45;;;1.85;;
56307;SDS011;42217;50.422;7.210;2023-08-06T00:22:18;5.97;;;1.92;;
56307;SDS011;42217;50.422;7.210;2023-08-06T00:24:44;3.30;;;2.03;;
56307;SDS011;42217;50.422;7.210;2023-08-06T00:27:10;3.08;;;2.00;;
56307;SDS011;42217;50.422;7.210;2023-08-06T00:29:35;2.63;;;1.70;;
56307;SDS011;42217;50.422;7.210;2023-08-06T00:32:01;6.85;;;2.10;;
56307;SDS011;42217;50.422;7.210;2023-08-06T00:34:27;2.78;;;2.30;;
56307;SDS011;42217;50.422;7.210;2023-08-06T00:36:52;3.83;;;2.03;;
56307;SDS011;42217;50.422;7.210;2023-08-06T00:39:19;4.82;;;1.83;;
56307;SDS011;42217;50.422;7.210;2023-08-06T00:41:44;28.50;;;4.10;;
56307;SDS011;42217;50.422;7.210;2023-08-06T00:44:10;2.53;;;1.88;;
56307;SDS011;42217;50.422;7.210;2023-08-06T00:46:36;6.40;;;2.33;;
56307;SDS011;42217;50.422;7.210;2023-08-06T00:49:02;4.38;;;2.72;;
56307;SDS011;42217;50.422;7.210;2023-08-06T00:51:27;7.32;;;2.70;;
56307;SDS011;42217;50.422;7.210;2023-08-06T00:53:53;2.72;;;1.67;;
56307;SDS011;42217;50.422;7.210;2023-08-06T00:56:20;3.60;;;2.10;;
56307;SDS011;42217;50.422;7.210;2023-08-06T00:58:46;2.85;;;2.00;;
56307;SDS011;42217;50.422;7.210;2023-08-06T01:01:12;5.80;;;2.67;;
56307;SDS011;42217;50.422;7.210;2023-08-06T01:03:38;4.47;;;2.63;;
56307;SDS011;42217;50.422;7.210;2023-08-06T01:06:04;4.13;;;1.90;;
56307;SDS011;42217;50.422;7.210;2023-08-06T01:14:06;5.07;;;2.08;;
56307;SDS011;42217;50.422;7.210;2023-08-06T01:16:40;3.15;;;2.13;;
56307;SDS011;42217;50.422;7.210;2023-08-06T01:19:15;3.72;;;1.85;;
56307;SDS011;42217;50.422;7.210;2023-08-06T01:21:42;4.30;;;2.28;;
56307;SDS011;42217;50.422;7.210;2023-08-06T01:24:07;3.35;;;2.58;;
56307;SDS011;42217;50.422;7.210;2023-08-06T01:26:35;2.38;;;1.80;;
56307;SDS011;42217;50.422;7.210;2023-08-06T01:29:10;4.50;;;1.85;;
56307;SDS011;42217;50.422;7.210;2023-08-06T01:31:56;3.20;;;2.00;;
56307;SDS011;42217;50.422;7.210;2023-08-06T01:34:24;4.95;;;2.20;;
56307;SDS011;42217;50.422;7.210;2023-08-06T01:36:52;3.92;;;1.98;;
56307;SDS011;42217;50.422;7.210;2023-08-06T01:39:17;4.28;;;1.85;;
56307;SDS011;42217;50.422;7.210;2023-08-06T01:41:46;9.55;;;2.45;;
56307;SDS011;42217;50.422;7.210;2023-08-06T01:44:12;2.90;;;1.45;;
56307;SDS011;42217;50.422;7.210;2023-08-06T01:46:38;5.35;;;2.28;;
56307;SDS011;42217;50.422;7.210;2023-08-06T01:49:04;3.85;;;2.20;;
56307;SDS011;42217;50.422;7.210;2023-08-06T01:51:29;5.80;;;2.33;;
56307;SDS011;42217;50.422;7.210;2023-08-06T01:53:55;2.03;;;1.83;;
56307;SDS011;42217;50.422;7.210;2023-08-06T01:56:21;4.32;;;2.63;;
56307;SDS011;42217;50.422;7.210;2023-08-06T01:58:46;3.20;;;2.20;;
56307;SDS011;42217;50.422;7.210;2023-08-06T02:01:12;4.90;;;2.00;;
56307;SDS011;42217;50.422;7.210;2023-08-06T02:03:38;5.47;;;2.05;;
56307;SDS011;42217;50.422;7.210;2023-08-06T02:06:04;4.32;;;1.83;;
56307;SDS011;42217;50.422;7.210;2023-08-06T02:08:30;4.20;;;1.70;;
56307;SDS011;42217;50.422;7.210;2023-08-06T02:10:55;6.72;;;1.85;;
56307;SDS011;42217;50.422;7.210;2023-08-06T02:13:22;2.97;;;1.58;;
56307;SDS011;42217;50.422;7.210;2023-08-06T02:15:48;9.63;;;2.63;;
56307;SDS011;42217;50.422;7.210;2023-08-06T02:18:14;4.13;;;1.58;;
56307;SDS011;42217;50.422;7.210;2023-08-06T02:20:40;5.97;;;1.60;;
56307;SDS011;42217;50.422;7.210;2023-08-06T02:23:06;3.97;;;1.60;;
56307;SDS011;42217;50.422;7.210;2023-08-06T02:25:32;3.83;;;2.95;;
56307;SDS011;42217;50.422;7.210;2023-08-06T02:27:58;5.13;;;1.70;;
56307;SDS011;42217;50.422;7.210;2023-08-06T02:30:24;11.98;;;2.10;;
56307;SDS011;42217;50.422;7.210;2023-08-06T02:32:49;5.32;;;1.73;;
56307;SDS011;42217;50.422;7.210;2023-08-06T02:35:15;7.22;;;1.50;;
56307;SDS011;42217;50.422;7.210;2023-08-06T02:37:41;4.63;;;1.58;;
56307;SDS011;42217;50.422;7.210;2023-08-06T02:40:07;7.15;;;2.05;;
56307;SDS011;42217;50.422;7.210;2023-08-06T02:42:32;7.90;;;1.92;;
56307;SDS011;42217;50.422;7.210;2023-08-06T02:44:58;7.95;;;1.77;;
56307;SDS011;42217;50.422;7.210;2023-08-06T02:47:24;4.68;;;1.40;;
56307;SDS011;42217;50.422;7.210;2023-08-06T02:49:50;2.78;;;1.60;;
56307;SDS011;42217;50.422;7.210;2023-08-06T02:52:15;6.53;;;2.08;;
56307;SDS011;42217;50.422;7.210;2023-08-06T02:54:41;3.85;;;1.60;;
56307;SDS011;42217;50.422;7.210;2023-08-06T02:57:07;4.40;;;2.67;;
56307;SDS011;42217;50.422;7.210;2023-08-06T02:59:33;5.78;;;2.05;;
56307;SDS011;42217;50.422;7.210;2023-08-06T03:01:59;8.25;;;2.53;;
56307;SDS011;42217;50.422;7.210;2023-08-06T03:04:24;5.20;;;2.38;;
56307;SDS011;42217;50.422;7.210;2023-08-06T03:06:50;7.18;;;2.00;;
56307;SDS011;42217;50.422;7.210;2023-08-06T03:09:16;5.65;;;2.08;;
56307;SDS011;42217;50.422;7.210;2023-08-06T03:11:42;2.67;;;1.77;;
56307;SDS011;42217;50.422;7.210;2023-08-06T03:14:08;5.07;;;1.45;;
56307;SDS011;42217;50.422;7.210;2023-08-06T03:16:34;4.30;;;2.20;;
56307;SDS011;42217;50.422;7.210;2023-08-06T03:19:00;4.63;;;2.10;;
56307;SDS011;42217;50.422;7.210;2023-08-06T03:21:26;5.80;;;2.47;;
56307;SDS011;42217;50.422;7.210;2023-08-06T03:23:51;2.78;;;2.00;;
56307;SDS011;42217;50.422;7.210;2023-08-06T03:26:17;5.07;;;2.70;;
56307;SDS011;42217;50.422;7.210;2023-08-06T03:28:43;7.45;;;2.63;;
56307;SDS011;42217;50.422;7.210;2023-08-06T03:31:08;4.13;;;1.60;;
56307;SDS011;42217;50.422;7.210;2023-08-06T03:33:34;2.95;;;1.75;;
56307;SDS011;42217;50.422;7.210;2023-08-06T03:36:00;5.05;;;1.88;;
56307;SDS011;42217;50.422;7.210;2023-08-06T03:38:26;4.03;;;2.42;;
56307;SDS011;42217;50.422;7.210;2023-08-06T03:40:52;8.40;;;2.05;;
56307;SDS011;42217;50.422;7.210;2023-08-06T03:43:18;9.25;;;2.90;;
56307;SDS011;42217;50.422;7.210;2023-08-06T03:45:44;3.17;;;2.15;;
56307;SDS011;42217;50.422;7.210;2023-08-06T03:48:10;5.30;;;2.72;;
56307;SDS011;42217;50.422;7.210;2023-08-06T03:50:35;2.97;;;1.80;;
56307;SDS011;42217;50.422;7.210;2023-08-06T03:53:01;2.40;;;1.35;;
56307;SDS011;42217;50.422;7.210;2023-08-06T03:55:27;3.28;;;1.92;;
56307;SDS011;42217;50.422;7.210;2023-08-06T03:57:53;4.38;;;2.35;;
56307;SDS011;42217;50.422;7.210;2023-08-06T04:00:19;1.65;;;1.10;;
56307;SDS011;42217;50.422;7.210;2023-08-06T04:02:44;1.98;;;1.15;;
56307;SDS011;42217;50.422;7.210;2023-08-06T04:05:10;1.15;;;0.77;;
56307;SDS011;42217;50.422;7.210;2023-08-06T04:07:36;2.40;;;1.00;;
56307;SDS011;42217;50.422;7.210;2023-08-06T04:10:03;4.50;;;0.90;;
56307;SDS011;42217;50.422;7.210;2023-08-06T04:12:30;8.88;;;0.70;;
56307;SDS011;42217;50.422;7.210;2023-08-06T04:14:57;2.15;;;1.55;;
56307;SDS011;42217;50.422;7.210;2023-08-06T04:17:24;1.70;;;0.65;;
56307;SDS011;42217;50.422;7.210;2023-08-06T04:19:50;0.63;;;0.43;;
56307;SDS011;42217;50.422;7.210;2023-08-06T04:22:17;1.02;;;0.57;;
56307;SDS011;42217;50.422;7.210;2023-08-06T04:24:43;0.65;;;0.43;;
56307;SDS011;42217;50.422;7.210;2023-08-06T04:27:09;0.50;;;0.40;;
56307;SDS011;42217;50.422;7.210;2023-08-06T04:29:35;0.50;;;0.50;;
56307;SDS011;42217;50.422;7.210;2023-08-06T04:32:01;0.50;;;0.50;;
56307;SDS011;42217;50.422;7.210;2023-08-06T04:34:28;1.50;;;0.63;;
56307;SDS011;42217;50.422;7.210;2023-08-06T04:36:54;0.47;;;0.40;;
56307;SDS011;42217;50.422;7.210;2023-08-06T04:39:20;0.55;;;0.55;;
56307;SDS011;42217;50.422;7.210;2023-08-06T04:41:45;1.38;;;0.43;;
56307;SDS011;42217;50.422;7.210;2023-08-06T04:44:11;0.60;;;0.60;;
56307;SDS011;42217;50.422;7.210;2023-08-06T04:46:37;0.30;;;0.30;;
56307;SDS011;42217;50.422;7.210;2023-08-06T04:49:02;0.50;;;0.50;;
56307;SDS011;42217;50.422;7.210;2023-08-06T04:51:28;0.80;;;0.50;;
56307;SDS011;42217;50.422;7.210;2023-08-06T04:53:53;0.50;;;0.40;;
56307;SDS011;42217;50.422;7.210;2023-08-06T04:56:19;1.05;;;0.77;;
56307;SDS011;42217;50.422;7.210;2023-08-06T04:58:45;0.85;;;0.38;;
56307;SDS011;42217;50.422;7.210;2023-08-06T05:01:10;0.63;;;0.30;;
56307;SDS011;42217;50.422;7.210;2023-08-06T05:03:36;0.38;;;0.30;;
56307;SDS011;42217;50.422;7.210;2023-08-06T05:06:02;0.40;;;0.40;;
56307;SDS011;42217;50.422;7.210;2023-08-06T05:08:27;0.40;;;0.22;;
56307;SDS011;42217;50.422;7.210;2023-08-06T05:10:53;0.40;;;0.40;;
56307;SDS011;42217;50.422;7.210;2023-08-06T05:13:19;0.15;;;0.15;;
56307;SDS011;42217;50.422;7.210;2023-08-06T05:15:44;2.92;;;0.25;;
56307;SDS011;42217;50.422;7.210;2023-08-06T05:18:11;0.40;;;0.40;;
56307;SDS011;42217;50.422;7.210;2023-08-06T05:20:41;0.20;;;0.20;;
56307;SDS011;42217;50.422;7.210;2023-08-06T05:23:07;0.43;;;0.28;;
56307;SDS011;42217;50.422;7.210;2023-08-06T05:25:36;0.20;;;0.20;;
56307;SDS011;42217;50.422;7.210;2023-08-06T05:28:03;0.30;;;0.28;;
56307;SDS011;42217;50.422;7.210;2023-08-06T05:30:29;0.30;;;0.22;;
56307;SDS011;42217;50.422;7.210;2023-08-06T05:32:55;4.30;;;0.38;;
56307;SDS011;42217;50.422;7.210;2023-08-06T05:35:21;0.85;;;0.40;;
56307;SDS011;42217;50.422;7.210;2023-08-06T05:37:47;1.25;;;0.60;;
56307;SDS011;42217;50.422;7.210;2023-08-06T05:40:13;0.57;;;0.32;;
56307;SDS011;42217;50.422;7.210;2023-08-06T05:42:39;0.50;;;0.30;;
56307;SDS011;42217;50.422;7.210;2023-08-06T05:45:06;0.43;;;0.30;;
56307;SDS011;42217;50.422;7.210;2023-08-06T05:47:32;0.30;;;0.30;;
56307;SDS011;42217;50.422;7.210;2023-08-06T05:49:58;0.63;;;0.30;;
56307;SDS011;42217;50.422;7.210;2023-08-06T05:52:23;1.05;;;0.45;;
56307;SDS011;42217;50.422;7.210;2023-08-06T05:54:49;0.35;;;0.32;;
56307;SDS011;42217;50.422;7.210;2023-08-06T05:57:15;0.30;;;0.30;;
56307;SDS011;42217;50.422;7.210;2023-08-06T05:59:41;1.02;;;0.47;;
56307;SDS011;42217;50.422;7.210;2023-08-06T06:02:07;0.85;;;0.52;;
56307;SDS011;42217;50.422;7.210;2023-08-06T06:04:33;0.30;;;0.30;;
56307;SDS011;42217;50.422;7.210;2023-08-06T06:06:58;0.40;;;0.30;;
56307;SDS011;42217;50.422;7.210;2023-08-06T06:09:24;2.65;;;0.50;;
56307;SDS011;42217;50.422;7.210;2023-08-06T06:11:50;3.53;;;0.57;;
56307;SDS011;42217;50.422;7.210;2023-08-06T06:14:18;0.82;;;0.43;;
56307;SDS011;42217;50.422;7.210;2023-08-06T06:16:44;0.88;;;0.60;;
56307;SDS011;42217;50.422;7.210;2023-08-06T06:19:11;0.60;;;0.47;;
56307;SDS011;42217;50.422;7.210;2023-08-06T06:21:37;2.30;;;0.40;;
56307;SDS011;42217;50.422;7.210;2023-08-06T06:24:04;0.38;;;0.38;;
56307;SDS011;42217;50.422;7.210;2023-08-06T06:26:30;0.43;;;0.40;;
56307;SDS011;42217;50.422;7.210;2023-08-06T06:28:56;0.98;;;0.40;;
56307;SDS011;42217;50.422;7.210;2023-08-06T06:31:22;1.67;;;0.70;;
56307;SDS011;42217;50.422;7.210;2023-08-06T06:33:48;0.65;;;0.35;;
56307;SDS011;42217;50.422;7.210;2023-08-06T06:36:14;0.70;;;0.50;;
56307;SDS011;42217;50.422;7.210;2023-08-06T06:38:40;2.53;;;0.60;;
56307;SDS011;42217;50.422;7.210;2023-08-06T06:41:05;2.05;;;1.15;;
56307;SDS011;42217;50.422;7.210;2023-08-06T06:43:31;0.50;;;0.50;;
56307;SDS011;42217;50.422;7.210;2023-08-06T06:46:00;0.93;;;0.60;;
56307;SDS011;42217;50.422;7.210;2023-08-06T06:48:26;1.30;;;0.57;;
56307;SDS011;42217;50.422;7.210;2023-08-06T06:50:53;1.02;;;0.38;;
56307;SDS011;42217;50.422;7.210;2023-08-06T06:53:19;1.63;;;0.52;;
56307;SDS011;42217;50.422;7.210;2023-08-06T06:55:44;0.60;;;0.40;;
56307;SDS011;42217;50.422;7.210;2023-08-06T06:58:13;1.58;;;0.60;;
56307;SDS011;42217;50.422;7.210;2023-08-06T07:00:40;0.60;;;0.60;;
56307;SDS011;42217;50.422;7.210;2023-08-06T07:03:06;1.27;;;0.35;;
56307;SDS011;42217;50.422;7.210;2023-08-06T07:05:34;3.17;;;0.50;;
56307;SDS011;42217;50.422;7.210;2023-08-06T07:08:00;0.80;;;0.47;;
56307;SDS011;42217;50.422;7.210;2023-08-06T07:10:26;0.40;;;0.30;;
56307;SDS011;42217;50.422;7.210;2023-08-06T07:12:51;1.98;;;0.38;;
56307;SDS011;42217;50.422;7.210;2023-08-06T07:15:17;2.25;;;1.13;;
56307;SDS011;42217;50.422;7.210;2023-08-06T07:17:43;2.60;;;0.57;;
56307;SDS011;42217;50.422;7.210;2023-08-06T07:20:09;0.38;;;0.30;;
56307;SDS011;42217;50.422;7.210;2023-08-06T07:22:35;0.40;;;0.40;;
56307;SDS011;42217;50.422;7.210;2023-08-06T07:25:01;0.50;;;0.50;;
56307;SDS011;42217;50.422;7.210;2023-08-06T07:27:27;2.95;;;1.25;;
56307;SDS011;42217;50.422;7.210;2023-08-06T07:29:52;3.25;;;0.50;;
56307;SDS011;42217;50.422;7.210;2023-08-06T07:32:18;0.73;;;0.68;;
56307;SDS011;42217;50.422;7.210;2023-08-06T07:34:44;0.40;;;0.40;;
56307;SDS011;42217;50.422;7.210;2023-08-06T07:37:09;1.35;;;0.52;;
56307;SDS011;42217;50.422;7.210;2023-08-06T07:39:35;0.77;;;0.63;;
56307;SDS011;42217;50.422;7.210;2023-08-06T07:42:03;1.55;;;0.50;;
56307;SDS011;42217;50.422;7.210;2023-08-06T07:44:30;3.15;;;0.70;;
56307;SDS011;42217;50.422;7.210;2023-08-06T07:46:56;2.25;;;0.60;;
56307;SDS011;42217;50.422;7.210;2023-08-06T07:49:22;1.52;;;0.60;;
56307;SDS011;42217;50.422;7.210;2023-08-06T07:51:47;1.25;;;0.70;;
56307;SDS011;42217;50.422;7.210;2023-08-06T07:54:13;1.40;;;0.50;;
56307;SDS011;42217;50.422;7.210;2023-08-06T07:56:39;0.40;;;0.32;;
56307;SDS011;42217;50.422;7.210;2023-08-06T07:59:05;1.75;;;0.38;;
56307;SDS011;42217;50.422;7.210;2023-08-06T08:01:30;3.45;;;0.30;;
56307;SDS011;42217;50.422;7.210;2023-08-06T08:03:56;1.67;;;0.45;;
56307;SDS011;42217;50.422;7.210;2023-08-06T08:06:22;0.45;;;0.30;;
56307;SDS011;42217;50.422;7.210;2023-08-06T08:08:48;0.73;;;0.47;;
56307;SDS011;42217;50.422;7.210;2023-08-06T08:11:14;0.63;;;0.30;;
56307;SDS011;42217;50.422;7.210;2023-08-06T08:13:41;0.40;;;0.38;;
56307;SDS011;42217;50.422;7.210;2023-08-06T08:16:07;1.10;;;0.30;;
56307;SDS011;42217;50.422;7.210;2023-08-06T08:18:32;1.58;;;0.40;;
56307;SDS011;42217;50.422;7.210;2023-08-06T08:20:58;0.30;;;0.30;;
56307;SDS011;42217;50.422;7.210;2023-08-06T08:23:24;0.68;;;0.47;;
56307;SDS011;42217;50.422;7.210;2023-08-06T08:25:50;0.43;;;0.40;;
56307;SDS011;42217;50.422;7.210;2023-08-06T08:28:16;0.30;;;0.30;;
56307;SDS011;42217;50.422;7.210;2023-08-06T08:30:41;1.27;;;0.22;;
56307;SDS011;42217;50.422;7.210;2023-08-06T08:33:07;0.73;;;0.40;;
56307;SDS011;42217;50.422;7.210;2023-08-06T08:35:33;0.30;;;0.20;;
56307;SDS011;42217;50.422;7.210;2023-08-06T08:37:59;0.30;;;0.25;;
56307;SDS011;42217;50.422;7.210;2023-08-06T08:40:30;0.70;;;0.40;;
56307;SDS011;42217;50.422;7.210;2023-08-06T08:42:58;1.58;;;0.40;;
56307;SDS011;42217;50.422;7.210;2023-08-06T08:45:26;0.40;;;0.32;;
56307;SDS011;42217;50.422;7.210;2023-08-06T08:47:53;1.15;;;0.30;;
56307;SDS011;42217;50.422;7.210;2023-08-06T08:50:19;0.57;;;0.40;;
56307;SDS011;42217;50.422;7.210;2023-08-06T08:52:46;1.20;;;0.90;;
56307;SDS011;42217;50.422;7.210;2023-08-06T08:55:14;0.63;;;0.43;;
56307;SDS011;42217;50.422;7.210;2023-08-06T08:57:40;0.32;;;0.32;;
56307;SDS011;42217;50.422;7.210;2023-08-06T09:00:06;2.88;;;0.40;;
56307;SDS011;42217;50.422;7.210;2023-08-06T09:02:32;1.48;;;0.50;;
56307;SDS011;42217;50.422;7.210;2023-08-06T09:05:02;2.00;;;0.25;;
56307;SDS011;42217;50.422;7.210;2023-08-06T09:07:34;0.68;;;0.40;;
56307;SDS011;42217;50.422;7.210;2023-08-06T09:10:03;1.08;;;0.32;;
56307;SDS011;42217;50.422;7.210;2023-08-06T09:12:33;0.50;;;0.50;;
56307;SDS011;42217;50.422;7.210;2023-08-06T09:14:59;0.65;;;0.55;;
56307;SDS011;42217;50.422;7.210;2023-08-06T09:17:25;0.68;;;0.50;;
56307;SDS011;42217;50.422;7.210;2023-08-06T09:19:50;0.50;;;0.43;;
56307;SDS011;42217;50.422;7.210;2023-08-06T09:22:16;0.75;;;0.60;;
56307;SDS011;42217;50.422;7.210;2023-08-06T09:24:42;0.60;;;0.60;;
56307;SDS011;42217;50.422;7.210;2023-08-06T09:27:12;0.88;;;0.88;;
56307;SDS011;42217;50.422;7.210;2023-08-06T09:29:44;0.90;;;0.80;;
56307;SDS011;42217;50.422;7.210;2023-08-06T09:32:11;0.90;;;0.65;;
56307;SDS011;42217;50.422;7.210;2023-08-06T09:34:43;1.60;;;1.25;;
56307;SDS011;42217;50.422;7.210;2023-08-06T09:37:11;2.40;;;1.33;;
56307;SDS011;42217;50.422;7.210;2023-08-06T09:39:38;1.17;;;0.85;;
56307;SDS011;42217;50.422;7.210;2023-08-06T09:42:05;0.50;;;0.50;;
56307;SDS011;42217;50.422;7.210;2023-08-06T09:44:32;2.72;;;0.45;;
56307;SDS011;42217;50.422;7.210;2023-08-06T09:47:00;1.75;;;0.50;;
56307;SDS011;42217;50.422;7.210;2023-08-06T09:52:01;0.30;;;0.30;;
56307;SDS011;42217;50.422;7.210;2023-08-06T09:54:27;0.20;;;0.20;;
56307;SDS011;42217;50.422;7.210;2023-08-06T09:56:55;0.20;;;0.20;;
56307;SDS011;42217;50.422;7.210;2023-08-06T09:59:21;0.20;;;0.20;;
56307;SDS011;42217;50.422;7.210;2023-08-06T10:01:48;0.30;;;0.30;;
56307;SDS011;42217;50.422;7.210;2023-08-06T10:04:14;0.30;;;0.30;;
56307;SDS011;42217;50.422;7.210;2023-08-06T10:06:45;0.30;;;0.30;;
56307;SDS011;42217;50.422;7.210;2023-08-06T10:09:13;2.20;;;0.43;;
56307;SDS011;42217;50.422;7.210;2023-08-06T10:11:39;0.30;;;0.30;;
56307;SDS011;42217;50.422;7.210;2023-08-06T10:17:02;0.60;;;0.60;;
56307;SDS011;42217;50.422;7.210;2023-08-06T10:19:28;0.50;;;0.40;;
56307;SDS011;42217;50.422;7.210;2023-08-06T10:22:14;1.13;;;0.28;;
56307;SDS011;42217;50.422;7.210;2023-08-06T10:24:52;0.32;;;0.32;;
56307;SDS011;42217;50.422;7.210;2023-08-06T10:33:00;4.22;;;0.63;;
56307;SDS011;42217;50.422;7.210;2023-08-06T10:35:35;0.43;;;0.43;;
56307;SDS011;42217;50.422;7.210;2023-08-06T10:38:05;0.80;;;0.40;;
56307;SDS011;42217;50.422;7.210;2023-08-06T10:40:34;1.38;;;0.45;;
56307;SDS011;42217;50.422;7.210;2023-08-06T10:43:03;0.63;;;0.63;;
56307;SDS011;42217;50.422;7.210;2023-08-06T10:45:34;2.67;;;0.43;;
56307;SDS011;42217;50.422;7.210;2023-08-06T10:48:00;2.40;;;0.45;;
56307;SDS011;42217;50.422;7.210;2023-08-06T10:50:26;1.23;;;0.38;;
56307;SDS011;42217;50.422;7.210;2023-08-06T10:52:52;1.20;;;0.50;;
56307;SDS011;42217;50.422;7.210;2023-08-06T10:57:54;0.60;;;0.60;;
56307;SDS011;42217;50.422;7.210;2023-08-06T11:00:23;1.77;;;0.57;;
56307;SDS011;42217;50.422;7.210;2023-08-06T11:02:51;1.27;;;0.52;;
56307;SDS011;42217;50.422;7.210;2023-08-06T11:05:17;0.77;;;0.45;;
56307;SDS011;42217;50.422;7.210;2023-08-06T11:07:43;0.75;;;0.50;;
56307;SDS011;42217;50.422;7.210;2023-08-06T11:10:10;2.22;;;0.60;;
56307;SDS011;42217;50.422;7.210;2023-08-06T11:12:37;0.43;;;0.40;;
56307;SDS011;42217;50.422;7.210;2023-08-06T11:15:04;2.90;;;0.50;;
56307;SDS011;42217;50.422;7.210;2023-08-06T11:17:31;0.52;;;0.40;;
56307;SDS011;42217;50.422;7.210;2023-08-06T11:20:03;1.48;;;0.40;;
56307;SDS011;42217;50.422;7.210;2023-08-06T11:22:30;0.60;;;0.40;;
56307;SDS011;42217;50.422;7.210;2023-08-06T11:24:56;0.40;;;0.40;;
56307;SDS011;42217;50.422;7.210;2023-08-06T11:27:22;1.13;;;0.50;;
56307;SDS011;42217;50.422;7.210;2023-08-06T11:29:48;1.48;;;0.40;;
56307;SDS011;42217;50.422;7.210;2023-08-06T11:32:13;0.70;;;0.70;;
56307;SDS011;42217;50.422;7.210;2023-08-06T11:34:39;0.95;;;0.40;;
56307;SDS011;42217;50.422;7.210;2023-08-06T11:37:06;2.30;;;0.90;;
56307;SDS011;42217;50.422;7.210;2023-08-06T11:39:32;0.93;;;0.45;;
56307;SDS011;42217;50.422;7.210;2023-08-06T11:41:59;3.05;;;0.52;;
56307;SDS011;42217;50.422;7.210;2023-08-06T11:44:29;0.73;;;0.50;;
56307;SDS011;42217;50.422;7.210;2023-08-06T11:46:59;1.27;;;1.17;;
56307;SDS011;42217;50.422;7.210;2023-08-06T11:49:39;3.30;;;1.25;;
56307;SDS011;42217;50.422;7.210;2023-08-06T11:54:39;2.28;;;0.63;;
56307;SDS011;42217;50.422;7.210;2023-08-06T11:57:08;1.65;;;0.60;;
56307;SDS011;42217;50.422;7.210;2023-08-06T11:59:34;2.58;;;1.08;;
56307;SDS011;42217;50.422;7.210;2023-08-06T12:02:01;1.50;;;0.77;;
56307;SDS011;42217;50.422;7.210;2023-08-06T12:04:50;3.10;;;0.98;;
56307;SDS011;42217;50.422;7.210;2023-08-06T12:07:30;2.42;;;1.10;;
56307;SDS011;42217;50.422;7.210;2023-08-06T12:09:57;0.80;;;0.80;;
56307;SDS011;42217;50.422;7.210;2023-08-06T12:12:23;1.30;;;0.43;;
56307;SDS011;42217;50.422;7.210;2023-08-06T12:14:49;2.83;;;0.80;;
56307;SDS011;42217;50.422;7.210;2023-08-06T12:17:15;2.13;;;0.80;;
56307;SDS011;42217;50.422;7.210;2023-08-06T12:19:41;2.10;;;0.90;;
56307;SDS011;42217;50.422;7.210;2023-08-06T12:22:06;3.50;;;0.70;;
56307;SDS011;42217;50.422;7.210;2023-08-06T12:24:32;3.80;;;0.80;;
56307;SDS011;42217;50.422;7.210;2023-08-06T12:26:58;2.47;;;1.00;;
56307;SDS011;42217;50.422;7.210;2023-08-06T12:29:24;3.22;;;0.65;;
56307;SDS011;42217;50.422;7.210;2023-08-06T12:31:51;6.18;;;1.10;;
56307;SDS011;42217;50.422;7.210;2023-08-06T12:34:16;1.75;;;0.93;;
56307;SDS011;42217;50.422;7.210;2023-08-06T12:36:42;1.00;;;0.95;;
56307;SDS011;42217;50.422;7.210;2023-08-06T12:39:08;1.50;;;0.68;;
56307;SDS011;42217;50.422;7.210;2023-08-06T12:41:33;1.80;;;0.60;;
56307;SDS011;42217;50.422;7.210;2023-08-06T12:43:59;1.45;;;0.70;;
56307;SDS011;42217;50.422;7.210;2023-08-06T12:46:25;4.28;;;0.77;;
56307;SDS011;42217;50.422;7.210;2023-08-06T12:48:50;2.28;;;0.90;;
56307;SDS011;42217;50.422;7.210;2023-08-06T12:51:16;3.60;;;1.80;;
56307;SDS011;42217;50.422;7.210;2023-08-06T12:53:43;0.82;;;0.80;;
56307;SDS011;42217;50.422;7.210;2023-08-06T12:56:09;1.15;;;0.70;;
56307;SDS011;42217;50.422;7.210;2023-08-06T12:58:36;0.30;;;0.30;;
56307;SDS011;42217;50.422;7.210;2023-08-06T13:01:04;0.80;;;0.70;;
56307;SDS011;42217;50.422;7.210;2023-08-06T13:03:30;0.75;;;0.65;;
56307;SDS011;42217;50.422;7.210;2023-08-06T13:05:56;1.42;;;0.60;;
56307;SDS011;42217;50.422;7.210;2023-08-06T13:08:23;0.85;;;0.30;;
56307;SDS011;42217;50.422;7.210;2023-08-06T13:10:49;0.55;;;0.55;;
56307;SDS011;42217;50.422;7.210;2023-08-06T13:13:15;0.73;;;0.43;;
56307;SDS011;42217;50.422;7.210;2023-08-06T13:15:40;0.40;;;0.40;;
56307;SDS011;42217;50.422;7.210;2023-08-06T13:18:06;0.88;;;0.50;;
56307;SDS011;42217;50.422;7.210;2023-08-06T13:20:32;0.70;;;0.70;;
56307;SDS011;42217;50.422;7.210;2023-08-06T13:22:58;0.30;;;0.30;;
56307;SDS011;42217;50.422;7.210;2023-08-06T13:25:26;0.70;;;0.50;;
56307;SDS011;42217;50.422;7.210;2023-08-06T13:27:53;0.10;;;0.10;;
56307;SDS011;42217;50.422;7.210;2023-08-06T13:30:19;0.50;;;0.50;;
56307;SDS011;42217;50.422;7.210;2023-08-06T13:32:45;0.50;;;0.50;;
56307;SDS011;42217;50.422;7.210;2023-08-06T13:35:11;1.40;;;0.30;;
56307;SDS011;42217;50.422;7.210;2023-08-06T13:37:37;0.35;;;0.35;;
56307;SDS011;42217;50.422;7.210;2023-08-06T13:40:03;0.28;;;0.28;;
56307;SDS011;42217;50.422;7.210;2023-08-06T13:42:29;0.10;;;0.10;;
56307;SDS011;42217;50.422;7.210;2023-08-06T13:44:57;1.08;;;0.50;;
56307;SDS011;42217;50.422;7.210;2023-08-06T13:47:27;1.38;;;0.30;;
56307;SDS011;42217;50.422;7.210;2023-08-06T13:49:53;0.57;;;0.57;;
56307;SDS011;42217;50.422;7.210;2023-08-06T13:52:19;0.55;;;0.50;;
56307;SDS011;42217;50.422;7.210;2023-08-06T13:54:45;0.75;;;0.47;;
56307;SDS011;42217;50.422;7.210;2023-08-06T13:57:12;1.25;;;0.60;;
56307;SDS011;42217;50.422;7.210;2023-08-06T13:59:38;2.53;;;0.70;;
56307;SDS011;42217;50.422;7.210;2023-08-06T14:02:03;0.52;;;0.52;;
56307;SDS011;42217;50.422;7.210;2023-08-06T14:04:29;1.85;;;0.55;;
56307;SDS011;42217;50.422;7.210;2023-08-06T14:06:55;2.42;;;0.82;;
56307;SDS011;42217;50.422;7.210;2023-08-06T14:09:21;1.88;;;1.17;;
56307;SDS011;42217;50.422;7.210;2023-08-06T14:11:47;0.60;;;0.60;;
56307;SDS011;42217;50.422;7.210;2023-08-06T14:14:12;0.93;;;0.60;;
56307;SDS011;42217;50.422;7.210;2023-08-06T14:16:38;1.02;;;0.55;;
56307;SDS011;42217;50.422;7.210;2023-08-06T14:19:04;1.40;;;1.30;;
56307;SDS011;42217;50.422;7.210;2023-08-06T14:21:30;2.58;;;0.82;;
56307;SDS011;42217;50.422;7.210;2023-08-06T14:23:57;0.73;;;0.30;;
56307;SDS011;42217;50.422;7.210;2023-08-06T14:26:22;2.47;;;0.50;;
56307;SDS011;42217;50.422;7.210;2023-08-06T14:28:48;1.90;;;0.45;;
56307;SDS011;42217;50.422;7.210;2023-08-06T14:31:14;2.00;;;0.40;;
56307;SDS011;42217;50.422;7.210;2023-08-06T14:33:40;1.13;;;0.80;;
56307;SDS011;42217;50.422;7.210;2023-08-06T14:36:06;1.83;;;0.70;;
56307;SDS011;42217;50.422;7.210;2023-08-06T14:38:31;0.65;;;0.65;;
56307;SDS011;42217;50.422;7.210;2023-08-06T14:40:57;1.27;;;0.63;;
56307;SDS011;42217;50.422;7.210;2023-08-06T14:43:23;0.45;;;0.40;;
56307;SDS011;42217;50.422;7.210;2023-08-06T14:45:49;1.42;;;0.50;;
56307;SDS011;42217;50.422;7.210;2023-08-06T14:48:15;0.82;;;0.47;;
56307;SDS011;42217;50.422;7.210;2023-08-06T14:50:40;0.95;;;0.30;;
56307;SDS011;42217;50.422;7.210;2023-08-06T14:53:06;1.35;;;0.65;;
56307;SDS011;42217;50.422;7.210;2023-08-06T14:55:33;0.30;;;0.30;;
56307;SDS011;42217;50.422;7.210;2023-08-06T14:58:00;1.13;;;0.50;;
56307;SDS011;42217;50.422;7.210;2023-08-06T15:00:26;0.82;;;0.40;;
56307;SDS011;42217;50.422;7.210;2023-08-06T15:02:52;0.57;;;0.57;;
56307;SDS011;42217;50.422;7.210;2023-08-06T15:05:17;0.32;;;0.32;;